Shikarpur Weather



Shikarpur's Current Weather

Temprature 29o haze

haze

Rain: 0 %

Min Temprature29o
Max Temprature29o
Humidity79
Wind Speed5.3 m/h
Sun Rise05:59:34
Sun Set18:57:22
Current Time: 23-Aug-2019 05:18:57
Lat/Lon: 27.96, 68.63




Shikarpur's Geo Location



Shikarpur's Weather Forecast

Time Overall Temp Min Temp Max Temp Humidity Wind Speed Rain
23-Aug-2019 (Fri)
08:00:00 clear sky 32.320 32.117 32.320 51 5.33 m/h 0 %
11:00:00 clear sky 40.700 40.550 40.700 23 4.37 m/h 0 %
14:00:00 clear sky 43.930 43.831 43.930 14 3.19 m/h 0 %
17:00:00 clear sky 44.460 44.411 44.460 12 3.31 m/h 0 %
20:00:00 few clouds 37.350 37.350 37.350 18 4.74 m/h 0 %
23:00:00 few clouds 33.842 33.842 33.842 42 6.09 m/h 0 %
24-Aug-2019 (Sat)
02:00:00 clear sky 32.031 32.031 32.031 46 6.28 m/h 0 %
05:00:00 clear sky 30.755 30.755 30.755 48 5.53 m/h 0 %
08:00:00 clear sky 33.917 33.917 33.917 39 5.22 m/h 0 %
11:00:00 clear sky 41.069 41.069 41.069 20 4.98 m/h 0 %
14:00:00 clear sky 44.069 44.069 44.069 15 4.89 m/h 0 %
17:00:00 clear sky 43.523 43.523 43.523 14 5.28 m/h 0 %
20:00:00 clear sky 36.950 36.950 36.950 22 5.01 m/h 0 %
23:00:00 clear sky 32.969 32.969 32.969 47 6.18 m/h 0 %
25-Aug-2019 (Sun)
02:00:00 clear sky 30.231 30.231 30.231 59 5.05 m/h 0 %
05:00:00 clear sky 29.057 29.057 29.057 60 5.28 m/h 0 %
08:00:00 clear sky 32.214 32.214 32.214 46 5.15 m/h 0 %
11:00:00 clear sky 39.316 39.316 39.316 25 4.23 m/h 0 %
14:00:00 clear sky 42.950 42.950 42.950 18 4.04 m/h 0 %
17:00:00 clear sky 42.650 42.650 42.650 17 5.43 m/h 0 %
20:00:00 clear sky 36.481 36.481 36.481 25 4.3 m/h 0 %
23:00:00 clear sky 32.711 32.711 32.711 47 6.24 m/h 0 %
26-Aug-2019 (Mon)
02:00:00 clear sky 30.465 30.465 30.465 58 5.09 m/h 0 %
05:00:00 clear sky 29.450 29.450 29.450 59 5.3 m/h 0 %
08:00:00 clear sky 33.367 33.367 33.367 37 4.38 m/h 0 %
11:00:00 clear sky 40.172 40.172 40.172 21 3.43 m/h 0 %
14:00:00 scattered clouds 44.684 44.684 44.684 15 2.01 m/h 0 %
17:00:00 broken clouds 43.520 43.520 43.520 15 4.12 m/h 0 %
20:00:00 overcast clouds 37.572 37.572 37.572 23 4.62 m/h 0 %
23:00:00 overcast clouds 35.014 35.014 35.014 34 5.26 m/h 0 %
27-Aug-2019 (Tue)
02:00:00 overcast clouds 32.316 32.316 32.316 45 3.41 m/h 0 %
05:00:00 overcast clouds 31.350 31.350 31.350 52 3.23 m/h 0 %
08:00:00 overcast clouds 34.835 34.835 34.835 44 2.47 m/h 0 %
11:00:00 broken clouds 44.136 44.136 44.136 18 1.56 m/h 0 %
14:00:00 few clouds 47.136 47.136 47.136 11 3.7 m/h 0 %
17:00:00 broken clouds 43.665 43.665 43.665 13 2.85 m/h 0 %
20:00:00 broken clouds 39.050 39.050 39.050 22 7.32 m/h 0 %
23:00:00 broken clouds 36.650 36.650 36.650 27 4.76 m/h 0 %
28-Aug-2019 (Wed)
02:00:00 overcast clouds 35.157 35.157 35.157 34 2.58 m/h 0 %
05:00:00 overcast clouds 33.172 33.172 33.172 39 1.87 m/h 0 %

Famous Cities (61)